createdAt,value
2023-03-23T15:57:57.738Z,18.87
2023-03-23T16:00:27.754Z,19.30
2023-03-23T16:02:59.605Z,19.58
2023-03-23T16:05:27.430Z,19.58
2023-03-23T16:07:54.642Z,19.68
2023-03-23T16:10:24.209Z,19.78
2023-03-23T16:12:51.389Z,19.69
2023-03-23T16:15:18.631Z,19.21
2023-03-23T16:17:48.371Z,18.73
2023-03-23T16:20:18.106Z,18.18
2023-03-23T16:22:45.861Z,17.61
2023-03-23T16:25:13.849Z,17.11
2023-03-23T16:27:42.295Z,16.65
2023-03-23T16:30:16.037Z,16.25
2023-03-23T16:32:46.179Z,15.86
2023-03-23T16:35:14.542Z,15.52
2023-03-23T16:37:51.976Z,15.17
2023-03-23T16:40:37.564Z,14.85
2023-03-23T16:43:08.890Z,14.60
2023-03-23T16:45:38.752Z,14.39
2023-03-23T16:48:06.448Z,14.16
2023-03-23T16:50:34.207Z,13.98
2023-03-23T16:53:01.694Z,13.82
2023-03-23T16:55:30.158Z,13.64
2023-03-23T16:58:12.854Z,13.48
2023-03-23T17:00:45.574Z,13.28
2023-03-23T17:03:13.435Z,13.19
2023-03-23T17:05:41.193Z,13.08
2023-03-23T17:08:08.526Z,12.97
2023-03-23T17:10:38.516Z,12.90
2023-03-23T17:13:08.950Z,12.72
2023-03-23T17:15:37.846Z,12.68
2023-03-23T17:18:06.010Z,12.59
2023-03-23T17:20:34.185Z,12.54
2023-03-23T17:23:01.695Z,12.46
2023-03-23T17:25:30.788Z,12.40
2023-03-23T17:28:05.465Z,12.32
2023-03-23T17:30:47.387Z,12.07
2023-03-23T17:33:14.637Z,11.93
2023-03-23T17:35:42.600Z,12.08
2023-03-23T17:38:11.094Z,12.05
2023-03-23T17:40:38.532Z,12.01
2023-03-23T17:43:06.831Z,11.94
2023-03-23T17:45:33.841Z,11.89
2023-03-23T17:48:01.393Z,11.85
2023-03-23T17:50:30.236Z,11.70
2023-03-23T17:52:57.972Z,11.75
2023-03-23T17:55:24.989Z,11.79
2023-03-23T17:57:51.942Z,11.77
2023-03-23T18:00:19.365Z,11.75
2023-03-23T18:02:46.528Z,11.60
2023-03-23T18:05:14.487Z,11.59
2023-03-23T18:07:44.365Z,11.57
2023-03-23T18:10:13.109Z,11.47
2023-03-23T18:12:41.703Z,11.37
2023-03-23T18:15:10.917Z,11.42
2023-03-23T18:17:38.537Z,11.35
2023-03-23T18:20:07.357Z,11.30
2023-03-23T18:22:34.409Z,11.29
2023-03-23T18:25:02.755Z,11.10
2023-03-23T18:27:29.913Z,11.18
2023-03-23T18:30:01.266Z,11.20
2023-03-23T18:32:28.782Z,11.14
2023-03-23T18:34:56.235Z,11.14
2023-03-23T18:37:23.471Z,11.11
2023-03-23T18:39:50.760Z,11.03
2023-03-23T18:42:17.764Z,11.00
2023-03-23T18:44:44.696Z,10.97
2023-03-23T18:47:11.831Z,10.85
2023-03-23T18:49:38.861Z,10.88
2023-03-23T18:52:16.396Z,10.86
2023-03-23T18:54:47.582Z,10.86
2023-03-23T18:57:16.199Z,10.84
2023-03-23T18:59:43.266Z,10.85
2023-03-23T19:02:12.459Z,10.41
2023-03-23T19:04:40.313Z,10.77
2023-03-23T19:07:23.291Z,10.68
2023-03-23T19:09:54.265Z,10.64
2023-03-23T19:12:29.154Z,10.61
2023-03-23T19:15:09.982Z,10.59
2023-03-23T19:17:39.910Z,10.54
2023-03-23T19:20:14.487Z,10.50
2023-03-23T19:22:47.536Z,10.39
2023-03-23T19:25:26.053Z,10.39
2023-03-23T19:28:45.420Z,10.35
2023-03-23T19:30:48.116Z,10.29
2023-03-23T19:33:15.815Z,10.25
2023-03-23T19:36:05.726Z,10.19
2023-03-23T19:38:38.164Z,10.14
2023-03-23T19:41:06.879Z,10.06
2023-03-23T19:43:34.201Z,10.01
2023-03-23T19:46:01.810Z,9.95
2023-03-23T19:48:31.137Z,9.86
2023-03-23T19:50:58.692Z,9.81
2023-03-23T19:53:26.761Z,9.76
2023-03-23T19:55:53.763Z,9.69
2023-03-23T19:58:21.270Z,9.67
2023-03-23T20:00:48.718Z,9.61
2023-03-23T20:03:16.932Z,9.60
2023-03-23T20:05:49.377Z,9.58
2023-03-23T20:08:16.771Z,9.32
2023-03-23T20:10:43.816Z,9.49
2023-03-23T20:13:11.595Z,9.50
2023-03-23T20:15:38.569Z,9.45
2023-03-23T20:18:07.309Z,9.47
2023-03-23T20:20:36.727Z,9.41
2023-03-23T20:23:13.046Z,9.45
2023-03-23T20:25:41.213Z,9.47
2023-03-23T20:28:08.218Z,9.45
2023-03-23T20:30:35.741Z,9.15
2023-03-23T20:33:09.449Z,9.43
2023-03-23T20:35:36.739Z,9.39
2023-03-23T20:38:03.616Z,9.38
2023-03-23T20:40:30.764Z,9.37
2023-03-23T20:42:57.861Z,9.34
2023-03-23T20:45:27.327Z,9.33
2023-03-23T20:47:55.414Z,9.30
2023-03-23T20:50:22.967Z,9.25
2023-03-23T20:52:49.935Z,9.11
2023-03-23T20:55:16.932Z,9.18
2023-03-23T20:57:44.896Z,9.13
2023-03-23T21:00:15.561Z,9.09
2023-03-23T21:02:42.670Z,9.04
2023-03-23T21:05:16.435Z,9.00
2023-03-23T21:07:49.240Z,8.96
2023-03-23T21:10:19.323Z,8.91
2023-03-23T21:12:58.614Z,8.83
2023-03-23T21:15:26.350Z,8.80
2023-03-23T21:17:53.262Z,8.78
2023-03-23T21:20:21.432Z,8.76
2023-03-23T21:22:48.710Z,8.74
2023-03-23T21:25:16.395Z,8.71
2023-03-23T21:27:43.257Z,8.67
2023-03-23T21:30:11.819Z,8.65
2023-03-23T21:32:38.706Z,8.63
2023-03-23T21:35:06.498Z,8.62
2023-03-23T21:37:33.485Z,8.60
2023-03-23T21:40:00.503Z,8.58
2023-03-23T21:42:32.854Z,8.54
2023-03-23T21:45:02.791Z,8.51
2023-03-23T21:47:31.752Z,8.49
2023-03-23T21:49:59.570Z,8.47
2023-03-23T21:52:26.784Z,8.34
2023-03-23T21:55:00.461Z,8.32
2023-03-23T21:57:31.128Z,8.41
2023-03-23T21:59:57.994Z,8.42
2023-03-23T22:02:25.121Z,8.45
2023-03-23T22:04:57.428Z,8.45
2023-03-23T22:07:25.106Z,8.40
2023-03-23T22:09:52.864Z,8.44
2023-03-23T22:12:22.897Z,8.41
2023-03-23T22:14:50.273Z,8.42
2023-03-23T22:17:17.580Z,8.34
2023-03-23T22:19:44.577Z,8.40
2023-03-23T22:22:12.902Z,8.29
2023-03-23T22:24:39.865Z,8.38
2023-03-23T22:27:07.136Z,8.31
2023-03-23T22:29:33.998Z,8.35
2023-03-23T22:32:01.334Z,8.34
2023-03-23T22:34:28.258Z,8.33
2023-03-23T22:36:56.402Z,8.31
2023-03-23T22:39:30.189Z,8.28
2023-03-23T22:41:57.390Z,8.15
2023-03-23T22:44:24.562Z,8.16
2023-03-23T22:46:51.759Z,8.19
2023-03-23T22:49:18.869Z,8.10
2023-03-23T22:51:47.076Z,7.99
2023-03-23T22:54:14.020Z,8.01
2023-03-23T22:56:41.268Z,8.02
2023-03-23T22:59:08.764Z,7.98
2023-03-23T23:01:36.282Z,7.91
2023-03-23T23:04:04.312Z,7.89
2023-03-23T23:06:31.654Z,7.67
2023-03-23T23:09:01.027Z,7.75
2023-03-23T23:11:28.290Z,7.74
2023-03-23T23:13:55.397Z,7.60
2023-03-23T23:16:22.837Z,7.64
2023-03-23T23:18:50.201Z,7.65
2023-03-23T23:21:20.586Z,7.61
2023-03-23T23:23:48.199Z,7.57
2023-03-23T23:26:16.683Z,7.40
2023-03-23T23:28:44.413Z,7.52
2023-03-23T23:31:29.272Z,7.46
2023-03-23T23:33:58.282Z,7.41
2023-03-23T23:36:30.323Z,7.39
2023-03-23T23:39:02.338Z,7.37
2023-03-23T23:41:30.834Z,7.32
2023-03-23T23:43:58.369Z,7.30
2023-03-23T23:46:26.788Z,7.28
2023-03-23T23:48:53.708Z,7.26
2023-03-23T23:51:20.991Z,7.23
2023-03-23T23:53:55.565Z,7.19
2023-03-23T23:56:22.651Z,7.11
2023-03-23T23:58:49.544Z,6.83
